createdAt,value
2019-05-18T00:01:13.058Z,91.40
2019-05-18T00:03:41.533Z,91.30
2019-05-18T00:06:09.989Z,91.20
2019-05-18T00:08:38.427Z,91.10
2019-05-18T00:11:07.468Z,91.10
2019-05-18T00:13:35.951Z,91.10
2019-05-18T00:16:04.539Z,91.10
2019-05-18T00:18:32.991Z,91.10
2019-05-18T00:21:01.931Z,91.20
2019-05-18T00:23:30.408Z,91.20
2019-05-18T00:25:58.861Z,91.10
2019-05-18T00:28:27.474Z,91.20
2019-05-18T00:30:56.000Z,91.20
2019-05-18T00:33:24.508Z,91.40
2019-05-18T00:35:52.968Z,91.30
2019-05-18T00:38:21.388Z,91.30
2019-05-18T00:40:49.846Z,91.30
2019-05-18T00:43:18.347Z,91.30
2019-05-18T00:45:46.822Z,91.50
2019-05-18T00:48:15.323Z,91.30
2019-05-18T00:50:44.700Z,91.20
2019-05-18T00:53:13.171Z,91.00
2019-05-18T00:55:42.107Z,90.80
2019-05-18T00:58:10.593Z,90.80
2019-05-18T01:00:39.091Z,90.90
2019-05-18T01:03:07.539Z,90.90
2019-05-18T01:05:38.079Z,90.90
2019-05-18T01:08:06.196Z,90.80
2019-05-18T01:10:35.078Z,90.80
2019-05-18T01:13:03.537Z,90.80
2019-05-18T01:15:32.008Z,90.80
2019-05-18T01:18:02.419Z,90.80
2019-05-18T01:20:30.707Z,90.70
2019-05-18T01:22:59.227Z,90.60
2019-05-18T01:25:28.064Z,90.50
2019-05-18T01:27:56.494Z,90.40
2019-05-18T01:30:25.635Z,90.30
2019-05-18T01:32:54.075Z,90.30
2019-05-18T01:35:22.631Z,90.20
2019-05-18T01:37:51.216Z,90.10
2019-05-18T01:40:20.443Z,90.10
2019-05-18T01:42:48.982Z,90.20
2019-05-18T01:45:18.443Z,90.40
2019-05-18T01:47:46.909Z,90.50
2019-05-18T01:50:15.507Z,90.70
2019-05-18T01:52:44.331Z,90.80
2019-05-18T01:55:13.014Z,90.90
2019-05-18T01:57:41.470Z,90.80
2019-05-18T02:00:12.951Z,90.80
2019-05-18T02:02:41.422Z,90.90
2019-05-18T02:05:11.555Z,91.10
2019-05-18T02:07:40.031Z,91.50
2019-05-18T02:10:09.198Z,91.60
2019-05-18T02:12:37.632Z,92.00
2019-05-18T02:15:07.115Z,92.50
2019-05-18T02:17:35.890Z,92.60
2019-05-18T02:20:05.018Z,92.40
2019-05-18T02:22:33.786Z,92.40
2019-05-18T02:25:02.481Z,92.30
2019-05-18T02:27:30.957Z,92.00
2019-05-18T02:29:59.722Z,92.00
2019-05-18T02:32:28.179Z,92.00
2019-05-18T02:34:57.007Z,92.00
2019-05-18T02:37:25.442Z,91.90
2019-05-18T02:39:55.518Z,91.90
2019-05-18T02:42:23.978Z,92.00
2019-05-18T02:44:52.430Z,92.10
2019-05-18T02:47:20.880Z,92.20
2019-05-18T02:49:49.329Z,92.20
2019-05-18T02:52:17.782Z,92.30
2019-05-18T02:54:46.205Z,92.60
2019-05-18T02:57:14.660Z,93.10
2019-05-18T02:59:43.090Z,93.10
2019-05-18T03:02:11.530Z,93.00
2019-05-18T03:04:40.029Z,92.80
2019-05-18T03:07:08.778Z,92.70
2019-05-18T03:09:37.277Z,92.70
2019-05-18T03:12:05.713Z,92.70
2019-05-18T03:14:34.142Z,92.60
2019-05-18T03:17:03.498Z,92.70
2019-05-18T03:19:31.930Z,92.60
2019-05-18T03:22:01.181Z,92.50
2019-05-18T03:24:31.125Z,92.40
2019-05-18T03:26:59.593Z,92.30
2019-05-18T03:29:28.049Z,92.30
2019-05-18T03:31:56.515Z,92.30
2019-05-18T03:34:25.316Z,92.40
2019-05-18T03:36:53.761Z,92.40
2019-05-18T03:39:22.211Z,92.50
2019-05-18T03:41:50.618Z,92.60
2019-05-18T03:44:19.062Z,92.60
2019-05-18T03:46:47.525Z,92.60
2019-05-18T03:49:26.465Z,92.70
2019-05-18T03:51:46.143Z,92.80
2019-05-18T03:54:14.903Z,92.90
2019-05-18T03:56:43.393Z,92.90
2019-05-18T03:59:11.844Z,92.80
2019-05-18T04:01:40.291Z,92.80
2019-05-18T04:04:08.794Z,92.80
2019-05-18T04:06:37.264Z,92.70
2019-05-18T04:09:06.908Z,92.50
2019-05-18T04:11:35.368Z,92.50
2019-05-18T04:14:07.912Z,92.40
2019-05-18T04:16:33.988Z,92.30
2019-05-18T04:19:02.416Z,92.30
2019-05-18T04:21:31.150Z,92.30
2019-05-18T04:23:59.593Z,92.40
2019-05-18T04:26:28.346Z,92.60
2019-05-18T04:28:56.802Z,92.70
2019-05-18T04:31:25.572Z,92.70
2019-05-18T04:33:54.045Z,93.00
2019-05-18T04:36:22.556Z,93.20
2019-05-18T04:38:51.116Z,93.40
2019-05-18T04:41:19.539Z,93.40
2019-05-18T04:43:48.379Z,93.40
2019-05-18T04:46:16.810Z,93.50
2019-05-18T04:48:45.255Z,93.50
2019-05-18T04:51:13.687Z,93.40
2019-05-18T04:53:42.140Z,93.30
2019-05-18T04:56:10.577Z,93.20
2019-05-18T04:58:39.016Z,93.10
2019-05-18T05:01:07.453Z,93.00
2019-05-18T05:03:35.897Z,92.90
2019-05-18T05:06:04.799Z,92.90
2019-05-18T05:08:33.234Z,92.90
2019-05-18T05:11:01.688Z,92.90
2019-05-18T05:13:30.177Z,93.00
2019-05-18T05:15:58.612Z,93.10
2019-05-18T05:18:27.059Z,93.10
2019-05-18T05:20:55.492Z,92.90
2019-05-18T05:23:24.006Z,92.60
2019-05-18T05:25:52.456Z,92.30
2019-05-18T05:28:20.933Z,92.10
2019-05-18T05:30:49.375Z,91.90
2019-05-18T05:33:18.172Z,91.80
2019-05-18T05:35:46.653Z,91.70
2019-05-18T05:38:15.130Z,91.30
2019-05-18T05:40:43.593Z,91.10
2019-05-18T05:43:12.042Z,91.20
2019-05-18T05:45:40.773Z,90.90
2019-05-18T05:48:09.195Z,90.60
2019-05-18T05:50:37.638Z,90.70
2019-05-18T05:53:06.087Z,90.70
2019-05-18T05:55:34.810Z,90.30
2019-05-18T05:58:03.633Z,90.00
2019-05-18T06:00:32.106Z,89.90
2019-05-18T06:03:00.558Z,89.70
2019-05-18T06:05:29.032Z,89.30
2019-05-18T06:07:57.824Z,88.40
2019-05-18T06:10:26.609Z,88.70
2019-05-18T06:12:55.078Z,88.30
2019-05-18T06:15:23.990Z,87.90
2019-05-18T06:17:52.862Z,86.90
2019-05-18T06:20:21.331Z,86.30
2019-05-18T06:22:50.139Z,86.20
2019-05-18T06:25:18.923Z,85.30
2019-05-18T06:27:47.397Z,84.60
2019-05-18T06:30:15.916Z,84.30
2019-05-18T06:32:44.358Z,83.70
2019-05-18T06:35:13.241Z,83.00
2019-05-18T06:37:41.666Z,82.60
2019-05-18T06:40:12.918Z,82.00
2019-05-18T06:42:41.646Z,81.70
2019-05-18T06:45:10.479Z,81.50
2019-05-18T06:47:38.992Z,81.10
2019-05-18T06:50:11.937Z,80.80
2019-05-18T06:52:38.484Z,80.00
2019-05-18T06:55:07.194Z,80.50
2019-05-18T06:57:36.778Z,82.30
2019-05-18T07:00:08.326Z,83.40
2019-05-18T07:02:36.783Z,83.20
2019-05-18T07:05:06.470Z,82.60
2019-05-18T07:07:34.893Z,82.50
2019-05-18T07:10:04.671Z,82.70
2019-05-18T07:12:33.145Z,82.20
2019-05-18T07:15:01.655Z,81.00
2019-05-18T07:17:30.401Z,82.10
2019-05-18T07:19:58.840Z,82.20
2019-05-18T07:22:27.260Z,81.50
2019-05-18T07:24:55.735Z,82.70
2019-05-18T07:27:24.611Z,79.80
2019-05-18T07:29:53.051Z,78.90
2019-05-18T07:32:21.477Z,78.70
2019-05-18T07:34:49.902Z,78.40
2019-05-18T07:37:18.649Z,79.80
2019-05-18T07:39:47.429Z,77.20
2019-05-18T07:42:15.886Z,78.00
2019-05-18T07:44:44.327Z,78.30
2019-05-18T07:47:14.326Z,76.90
2019-05-18T07:49:42.786Z,77.60
2019-05-18T07:52:11.249Z,78.10
2019-05-18T07:54:39.857Z,75.40
2019-05-18T07:57:08.381Z,75.80
2019-05-18T07:59:36.825Z,75.40
2019-05-18T08:02:06.039Z,76.30
2019-05-18T08:04:34.807Z,74.20
2019-05-18T08:07:03.281Z,75.50
2019-05-18T08:09:31.730Z,74.80
2019-05-18T08:12:00.235Z,71.50
2019-05-18T08:14:28.696Z,72.00
2019-05-18T08:16:57.392Z,72.30
2019-05-18T08:19:25.834Z,71.50
2019-05-18T08:21:54.306Z,70.50
2019-05-18T08:24:23.001Z,69.50
2019-05-18T08:26:51.452Z,69.10
2019-05-18T08:29:19.888Z,69.20
2019-05-18T08:31:48.682Z,70.20
2019-05-18T08:34:17.494Z,68.20
2019-05-18T08:36:46.286Z,69.10
2019-05-18T08:39:14.763Z,69.10
2019-05-18T08:41:43.209Z,69.80
2019-05-18T08:44:11.650Z,69.20
2019-05-18T08:46:41.247Z,67.40
2019-05-18T08:49:09.697Z,67.30
2019-05-18T08:51:38.180Z,65.70
2019-05-18T08:54:06.949Z,66.80
2019-05-18T08:56:35.480Z,65.10
2019-05-18T08:59:04.787Z,67.10
2019-05-18T09:01:33.247Z,64.90
2019-05-18T09:04:01.713Z,63.60
2019-05-18T09:06:30.161Z,65.80
2019-05-18T09:08:58.605Z,68.50
2019-05-18T09:11:27.149Z,68.00
2019-05-18T09:13:55.591Z,64.90
2019-05-18T09:16:24.023Z,64.60
2019-05-18T09:18:52.549Z,64.20
2019-05-18T09:21:21.049Z,58.90
2019-05-18T09:23:49.933Z,63.50
2019-05-18T09:26:18.718Z,63.10
2019-05-18T09:28:47.522Z,64.80
2019-05-18T09:31:16.308Z,62.50
2019-05-18T09:33:44.744Z,60.20
2019-05-18T09:36:13.558Z,59.00
2019-05-18T09:38:42.026Z,59.00
2019-05-18T09:41:10.466Z,59.60
2019-05-18T09:43:38.920Z,57.90
2019-05-18T09:46:07.379Z,58.90
2019-05-18T09:48:35.873Z,58.20
2019-05-18T09:51:04.661Z,56.40
2019-05-18T09:53:33.136Z,55.20
2019-05-18T09:56:01.578Z,57.50
2019-05-18T09:58:30.103Z,59.30
2019-05-18T10:00:58.986Z,63.10
2019-05-18T10:03:27.862Z,64.10
2019-05-18T10:05:56.305Z,60.90
2019-05-18T10:08:24.998Z,58.80
2019-05-18T10:10:53.499Z,58.50
2019-05-18T10:13:22.032Z,56.50
2019-05-18T10:15:50.608Z,55.80
2019-05-18T10:18:21.756Z,58.10
2019-05-18T10:20:49.296Z,57.20
2019-05-18T10:23:25.727Z,54.40
2019-05-18T10:25:53.868Z,56.70
2019-05-18T10:28:23.157Z,54.10
2019-05-18T10:30:52.163Z,54.80
2019-05-18T10:33:21.041Z,54.90
2019-05-18T10:35:49.947Z,55.60
2019-05-18T10:38:20.595Z,55.70
2019-05-18T10:40:53.072Z,52.90
2019-05-18T10:43:21.795Z,53.80
2019-05-18T10:45:50.756Z,53.60
2019-05-18T10:48:19.673Z,50.00
2019-05-18T10:50:48.146Z,50.80
2019-05-18T10:53:28.271Z,52.80
2019-05-18T10:55:50.262Z,53.20
2019-05-18T10:58:18.775Z,53.60
2019-05-18T11:00:47.641Z,54.50
2019-05-18T11:03:17.089Z,53.90
2019-05-18T11:05:45.706Z,53.20
2019-05-18T11:08:14.233Z,51.40
2019-05-18T11:10:42.921Z,50.70
2019-05-18T11:13:11.667Z,53.40
2019-05-18T11:15:40.374Z,56.90
2019-05-18T11:18:09.121Z,59.80
2019-05-18T11:20:39.535Z,54.60
2019-05-18T11:23:08.030Z,53.30
2019-05-18T11:25:36.475Z,53.10
2019-05-18T11:28:04.932Z,56.50
2019-05-18T11:30:33.729Z,55.40
2019-05-18T11:33:13.783Z,55.40
2019-05-18T11:35:42.440Z,52.00
2019-05-18T11:38:16.179Z,52.50
2019-05-18T11:40:45.707Z,50.90
2019-05-18T11:43:16.041Z,52.10
2019-05-18T11:45:44.454Z,51.70
2019-05-18T11:48:16.117Z,51.30
2019-05-18T11:50:44.601Z,52.60
2019-05-18T11:53:13.018Z,53.80
2019-05-18T11:55:41.426Z,53.20
2019-05-18T11:58:09.896Z,50.10
2019-05-18T12:00:38.318Z,50.30
2019-05-18T12:03:12.427Z,50.10
2019-05-18T12:05:40.914Z,49.20
2019-05-18T12:08:09.300Z,49.30
2019-05-18T12:10:37.713Z,51.50
2019-05-18T12:13:13.499Z,53.20
2019-05-18T12:15:41.917Z,53.20
2019-05-18T12:18:10.307Z,51.40
2019-05-18T12:20:38.730Z,48.30
2019-05-18T12:23:08.383Z,49.50
2019-05-18T12:25:37.753Z,53.40
2019-05-18T12:28:06.192Z,53.20
2019-05-18T12:30:34.652Z,54.50
2019-05-18T12:33:03.820Z,54.10
2019-05-18T12:35:32.236Z,53.60
2019-05-18T12:38:00.975Z,50.30
2019-05-18T12:40:29.395Z,54.00
2019-05-18T12:42:58.270Z,52.90
2019-05-18T12:45:27.131Z,48.90
2019-05-18T12:47:55.808Z,50.00
2019-05-18T12:50:25.552Z,50.60
2019-05-18T12:52:53.955Z,52.20
2019-05-18T12:55:22.775Z,52.40
2019-05-18T12:57:51.281Z,50.20
2019-05-18T13:00:22.137Z,52.60
2019-05-18T13:02:50.512Z,54.50
2019-05-18T13:05:20.394Z,57.90
2019-05-18T13:07:48.802Z,57.40
2019-05-18T13:10:18.044Z,55.60
2019-05-18T13:12:46.457Z,50.50
2019-05-18T13:15:15.497Z,54.30
2019-05-18T13:17:43.917Z,53.00
2019-05-18T13:20:13.457Z,53.00
2019-05-18T13:22:41.864Z,54.80
2019-05-18T13:25:11.754Z,51.80
2019-05-18T13:27:40.371Z,54.00
2019-05-18T13:30:14.031Z,51.60
2019-05-18T13:32:42.506Z,51.40
2019-05-18T13:35:12.642Z,50.30
2019-05-18T13:37:41.098Z,53.30
2019-05-18T13:40:14.247Z,53.40
2019-05-18T13:42:42.745Z,50.50
2019-05-18T13:45:15.607Z,48.10
2019-05-18T13:47:44.105Z,48.80
2019-05-18T13:50:13.747Z,51.60
2019-05-18T13:52:42.405Z,51.30
2019-05-18T13:55:11.581Z,47.70
2019-05-18T13:57:40.430Z,49.80
2019-05-18T14:00:10.764Z,51.40
2019-05-18T14:02:39.182Z,49.50
2019-05-18T14:05:08.311Z,45.20
2019-05-18T14:07:36.698Z,47.00
2019-05-18T14:10:07.348Z,43.00
2019-05-18T14:12:36.211Z,45.30
2019-05-18T14:15:06.770Z,46.20
2019-05-18T14:17:35.505Z,42.80
2019-05-18T14:20:05.806Z,44.60
2019-05-18T14:22:34.206Z,46.80
2019-05-18T14:25:10.544Z,46.60
2019-05-18T14:27:33.192Z,44.80
2019-05-18T14:30:01.661Z,48.30
2019-05-18T14:32:30.267Z,48.90
2019-05-18T14:34:58.670Z,48.60
2019-05-18T14:37:27.080Z,50.50
2019-05-18T14:39:55.800Z,53.30
2019-05-18T14:42:24.275Z,54.00
2019-05-18T14:44:52.695Z,54.60
2019-05-18T14:47:27.678Z,56.30
2019-05-18T14:49:57.422Z,57.50
2019-05-18T14:52:25.828Z,58.10
2019-05-18T14:54:55.410Z,58.70
2019-05-18T14:57:25.767Z,58.40
2019-05-18T14:59:54.928Z,57.80
2019-05-18T15:02:29.734Z,57.90
2019-05-18T15:04:58.239Z,58.80
2019-05-18T15:07:26.636Z,59.70
2019-05-18T15:09:55.035Z,60.10
2019-05-18T15:12:23.470Z,59.60
2019-05-18T15:14:52.266Z,60.00
2019-05-18T15:17:21.018Z,59.60
2019-05-18T15:19:49.459Z,58.80
2019-05-18T15:22:17.900Z,60.60
2019-05-18T15:24:46.324Z,61.70
2019-05-18T15:27:15.159Z,62.10
2019-05-18T15:29:43.594Z,62.30
2019-05-18T15:32:12.052Z,63.00
2019-05-18T15:34:40.535Z,62.50
2019-05-18T15:37:08.998Z,62.60
2019-05-18T15:39:37.442Z,63.70
2019-05-18T15:42:05.983Z,64.20
2019-05-18T15:44:34.501Z,65.90
2019-05-18T15:47:03.006Z,65.70
2019-05-18T15:49:31.874Z,66.60
2019-05-18T15:52:00.342Z,66.00
2019-05-18T15:54:29.487Z,66.60
2019-05-18T15:56:58.249Z,66.00
2019-05-18T15:59:26.678Z,66.20
2019-05-18T16:01:55.321Z,66.70
2019-05-18T16:04:24.118Z,67.00
2019-05-18T16:06:52.629Z,67.40
2019-05-18T16:09:21.734Z,67.30
2019-05-18T16:11:50.165Z,67.70
2019-05-18T16:14:18.594Z,67.90
2019-05-18T16:16:47.255Z,68.00
2019-05-18T16:19:16.350Z,68.60
2019-05-18T16:21:45.133Z,69.90
2019-05-18T16:24:13.619Z,69.80
2019-05-18T16:26:42.139Z,69.80
2019-05-18T16:29:10.587Z,69.70
2019-05-18T16:31:39.432Z,70.60
2019-05-18T16:34:08.224Z,70.80
2019-05-18T16:36:36.696Z,69.40
2019-05-18T16:39:07.401Z,70.10
2019-05-18T16:41:35.833Z,70.30
2019-05-18T16:44:04.315Z,70.00
2019-05-18T16:46:32.766Z,69.10
2019-05-18T16:49:03.222Z,69.30
2019-05-18T16:51:33.076Z,68.70
2019-05-18T16:54:01.567Z,70.70
2019-05-18T16:56:35.111Z,72.20
2019-05-18T16:59:00.712Z,72.90
2019-05-18T17:01:29.461Z,74.00
2019-05-18T17:03:57.933Z,74.90
2019-05-18T17:06:26.727Z,77.80
2019-05-18T17:08:55.236Z,78.60
2019-05-18T17:11:24.622Z,78.90
2019-05-18T17:13:53.393Z,80.20
2019-05-18T17:16:22.180Z,80.20
2019-05-18T17:18:50.636Z,80.90
2019-05-18T17:21:19.114Z,80.20
2019-05-18T17:23:47.826Z,79.90
2019-05-18T17:26:16.283Z,80.50
2019-05-18T17:28:44.712Z,80.50
2019-05-18T17:31:13.137Z,81.50
2019-05-18T17:33:41.583Z,82.10
2019-05-18T17:36:10.345Z,82.50
2019-05-18T17:38:38.819Z,83.50
2019-05-18T17:41:07.239Z,84.50
2019-05-18T17:43:35.682Z,85.30
2019-05-18T17:46:04.191Z,85.40
2019-05-18T17:48:32.629Z,85.30
2019-05-18T17:51:01.066Z,86.00
2019-05-18T17:53:29.502Z,86.20
2019-05-18T17:55:57.948Z,86.40
2019-05-18T17:58:26.746Z,86.60
2019-05-18T18:00:55.193Z,87.20
2019-05-18T18:03:23.723Z,87.30
2019-05-18T18:05:52.141Z,87.10
2019-05-18T18:08:20.615Z,86.70
2019-05-18T18:10:49.347Z,86.70
2019-05-18T18:13:17.802Z,86.50
2019-05-18T18:15:46.245Z,86.20
2019-05-18T18:18:15.109Z,85.80
2019-05-18T18:20:43.567Z,85.80
2019-05-18T18:23:12.006Z,86.20
2019-05-18T18:25:40.479Z,86.40
2019-05-18T18:28:08.914Z,86.50
2019-05-18T18:30:37.717Z,87.30
2019-05-18T18:33:06.228Z,88.20
2019-05-18T18:35:34.963Z,88.50
2019-05-18T18:38:03.413Z,88.50
2019-05-18T18:40:31.864Z,88.60
2019-05-18T18:43:00.304Z,88.50
2019-05-18T18:45:28.745Z,88.30
2019-05-18T18:47:57.577Z,88.70
2019-05-18T18:50:26.042Z,88.70
2019-05-18T18:52:54.452Z,88.80
2019-05-18T18:55:22.912Z,89.20
2019-05-18T18:57:51.383Z,89.40
2019-05-18T19:00:19.914Z,89.40
2019-05-18T19:02:48.446Z,89.80
2019-05-18T19:05:16.946Z,89.80
2019-05-18T19:07:45.360Z,89.80
2019-05-18T19:10:14.710Z,89.90
2019-05-18T19:12:43.151Z,89.80
2019-05-18T19:15:12.146Z,89.80
2019-05-18T19:17:40.861Z,89.80
2019-05-18T19:20:10.249Z,89.80
2019-05-18T19:22:38.692Z,90.10
2019-05-18T19:25:07.664Z,90.10
2019-05-18T19:27:36.099Z,90.30
2019-05-18T19:30:09.895Z,90.20
2019-05-18T19:32:37.949Z,90.20
2019-05-18T19:35:09.326Z,90.30
2019-05-18T19:37:37.771Z,90.30
2019-05-18T19:40:07.588Z,90.50
2019-05-18T19:42:36.031Z,91.00
2019-05-18T19:45:07.703Z,90.90
2019-05-18T19:47:36.116Z,90.90
2019-05-18T19:50:08.510Z,90.80
2019-05-18T19:52:36.982Z,90.60
2019-05-18T19:55:08.474Z,90.60
2019-05-18T19:57:36.929Z,90.50
2019-05-18T20:00:08.112Z,90.50
2019-05-18T20:02:36.558Z,90.50
2019-05-18T20:05:08.899Z,90.40
2019-05-18T20:07:37.844Z,90.80
2019-05-18T20:10:08.754Z,91.00
2019-05-18T20:12:37.164Z,91.50
2019-05-18T20:15:10.116Z,91.70
2019-05-18T20:17:38.662Z,91.90
2019-05-18T20:20:08.334Z,92.40
2019-05-18T20:22:36.753Z,92.40
2019-05-18T20:25:06.032Z,92.70
2019-05-18T20:27:34.474Z,92.60
2019-05-18T20:30:02.932Z,92.50
2019-05-18T20:32:31.682Z,92.30
2019-05-18T20:35:00.122Z,92.10
2019-05-18T20:37:28.628Z,92.10
2019-05-18T20:39:57.354Z,92.00
2019-05-18T20:42:25.830Z,91.90
2019-05-18T20:44:54.257Z,91.90
2019-05-18T20:47:22.743Z,91.90
2019-05-18T20:49:51.174Z,92.00
2019-05-18T20:52:20.088Z,91.80
2019-05-18T20:54:48.667Z,91.80
2019-05-18T20:57:17.403Z,91.90
2019-05-18T20:59:46.215Z,92.00
2019-05-18T21:02:14.726Z,92.00
2019-05-18T21:04:43.193Z,91.90
2019-05-18T21:07:11.747Z,91.90
2019-05-18T21:09:40.250Z,91.90
2019-05-18T21:12:09.022Z,91.90
2019-05-18T21:14:37.935Z,92.00
2019-05-18T21:17:07.059Z,92.10
2019-05-18T21:19:35.799Z,92.30
2019-05-18T21:22:04.310Z,92.20
2019-05-18T21:24:32.751Z,92.30
2019-05-18T21:27:01.203Z,93.40
2019-05-18T21:29:29.657Z,93.50
2019-05-18T21:31:58.158Z,93.80
2019-05-18T21:34:26.883Z,94.20
2019-05-18T21:36:55.357Z,94.40
2019-05-18T21:39:23.878Z,94.70
2019-05-18T21:41:52.476Z,94.70
2019-05-18T21:44:20.938Z,94.90
2019-05-18T21:46:49.416Z,95.00
2019-05-18T21:49:17.825Z,94.90
2019-05-18T21:51:46.286Z,94.80
2019-05-18T21:54:14.737Z,94.60
2019-05-18T21:56:43.210Z,94.60
2019-05-18T21:59:12.644Z,94.60
2019-05-18T22:01:41.502Z,94.40
2019-05-18T22:04:10.005Z,94.40
2019-05-18T22:06:39.573Z,94.30
2019-05-18T22:09:08.145Z,94.50
2019-05-18T22:11:36.951Z,94.60
2019-05-18T22:14:06.072Z,94.60
2019-05-18T22:16:34.927Z,94.60
2019-05-18T22:19:03.348Z,94.50
2019-05-18T22:21:31.779Z,94.40
2019-05-18T22:24:00.569Z,94.20
2019-05-18T22:26:29.000Z,94.10
2019-05-18T22:28:57.441Z,94.00
2019-05-18T22:31:26.012Z,94.00
2019-05-18T22:33:54.925Z,93.90
2019-05-18T22:36:23.686Z,93.90
2019-05-18T22:38:52.166Z,94.00
2019-05-18T22:41:20.967Z,94.10
2019-05-18T22:43:49.380Z,94.30
2019-05-18T22:46:17.809Z,94.50
2019-05-18T22:48:46.699Z,94.60
2019-05-18T22:51:15.121Z,94.50
2019-05-18T22:53:46.550Z,94.60
2019-05-18T22:56:14.500Z,94.60
2019-05-18T22:58:42.913Z,94.40
2019-05-18T23:01:11.617Z,94.20
2019-05-18T23:03:40.441Z,94.10
2019-05-18T23:06:08.869Z,94.00
2019-05-18T23:08:37.312Z,94.10
2019-05-18T23:11:06.014Z,94.30
2019-05-18T23:13:34.460Z,94.30
2019-05-18T23:16:02.954Z,94.40
2019-05-18T23:18:31.649Z,94.50
2019-05-18T23:21:00.099Z,94.60
2019-05-18T23:23:28.557Z,94.60
2019-05-18T23:25:57.014Z,95.00
2019-05-18T23:28:25.467Z,95.00
2019-05-18T23:30:54.220Z,95.10
2019-05-18T23:33:23.120Z,95.10
2019-05-18T23:35:51.553Z,95.60
2019-05-18T23:38:20.281Z,96.10
2019-05-18T23:40:49.077Z,96.30
2019-05-18T23:43:17.538Z,96.40
2019-05-18T23:45:45.958Z,96.40
2019-05-18T23:48:15.394Z,96.30
2019-05-18T23:50:43.808Z,96.20
2019-05-18T23:53:12.324Z,95.90
2019-05-18T23:55:40.757Z,95.70
2019-05-18T23:58:09.201Z,95.70
